This is the latest recevied weather packets stored in our database for station/object SHLBYV-WX. If no packets are shown the sender has not sent any weather packets the latest 10 day(s).
| Time | Temp. | Humidity | Pressure | Rain* | Wind** | Luminosity | Snow |
|---|---|---|---|---|---|---|---|
| 1777918557 | 22.22° C | 32% | 972.9 hPa | 0 mm | - | - | - |
| 1777917696 | 21.67° C | 32% | 972.9 hPa | 0 mm | - | - | - |
| 1777916756 | 21.67° C | 38% | 973.8 hPa | 0 mm | - | - | - |
| 1777915873 | 21.67° C | 37% | 973.5 hPa | 0 mm | - | - | - |
| 1777914955 | 21.11° C | 37% | 973.5 hPa | 0 mm | - | - | - |
| 1777914083 | 20.56° C | 37% | 973.3 hPa | 0 mm | - | - | - |
| 1777913155 | 20° C | 49% | 973.9 hPa | 0 mm | - | - | - |
| 1777912269 | 19.44° C | 49% | 973.9 hPa | 0 mm | - | - | - |
| 1777911355 | 19.44° C | 49% | 973.9 hPa | 0 mm | - | - | - |
| 1777910489 | 18.89° C | 49% | 973.9 hPa | 0 mm | - | - | - |
| 1777909555 | 18.33° C | 59% | 974.4 hPa | 0 mm | - | - | - |
| 1777908672 | 17.78° C | 59% | 974.4 hPa | 0 mm | - | - | - |
| 1777907756 | 17.22° C | 59% | 974.4 hPa | 0 mm | - | - | - |
| 1777906893 | 16.67° C | 59% | 974.4 hPa | 0 mm | - | - | - |
| 1777905955 | 16.11° C | 66% | 974.5 hPa | 0 mm | - | - | - |
| 1777905073 | 15.56° C | 69% | 975.2 hPa | 0 mm | - | - | - |
| 1777904150 | 15.56° C | 69% | 975.2 hPa | 0 mm | - | - | - |
| 1777903298 | 15° C | 66% | 974.4 hPa | 0 mm | - | - | - |
| 1777902355 | 13.89° C | 69% | 974.4 hPa | 0 mm | - | - | - |
| 1777901472 | 13.33° C | 69% | 974.3 hPa | 0 mm | - | - | - |
| 1777900555 | 12.78° C | 69% | 974.3 hPa | 0 mm | - | - | - |
| 1777899688 | 12.22° C | 71% | 974.2 hPa | 0 mm | - | - | - |
| 1777898754 | 11.11° C | 78% | 974.7 hPa | 0 mm | - | - | - |
| 1777897872 | 10.56° C | 78% | 974.8 hPa | 0 mm | - | - | - |
| 1777896954 | 10° C | 78% | 974.8 hPa | 0 mm | - | - | - |
* Rain latest hour (hover to see other rain measurements)
** Current wind speed in m/s (hover to see current wind gust speed)